sensor_id;sensor_type;location;lat;lon;timestamp;P1;durP1;ratioP1;P2;durP2;ratioP2
75246;SDS011;63844;50.042;19.224;2024-01-15T00:01:25;5.80;;;2.50;;
75246;SDS011;63844;50.042;19.224;2024-01-15T00:03:01;7.30;;;3.20;;
75246;SDS011;63844;50.042;19.224;2024-01-15T00:04:39;5.90;;;2.70;;
75246;SDS011;63844;50.042;19.224;2024-01-15T00:06:16;6.90;;;2.60;;
75246;SDS011;63844;50.042;19.224;2024-01-15T00:07:53;5.20;;;2.30;;
75246;SDS011;63844;50.042;19.224;2024-01-15T00:09:29;6.50;;;2.30;;
75246;SDS011;63844;50.042;19.224;2024-01-15T00:11:05;5.80;;;2.30;;
75246;SDS011;63844;50.042;19.224;2024-01-15T00:12:42;6.50;;;2.90;;
75246;SDS011;63844;50.042;19.224;2024-01-15T00:14:18;5.80;;;2.70;;
75246;SDS011;63844;50.042;19.224;2024-01-15T00:15:56;5.70;;;2.60;;
75246;SDS011;63844;50.042;19.224;2024-01-15T00:17:32;4.60;;;1.60;;
75246;SDS011;63844;50.042;19.224;2024-01-15T00:19:09;5.90;;;2.50;;
75246;SDS011;63844;50.042;19.224;2024-01-15T00:20:45;5.00;;;2.80;;
75246;SDS011;63844;50.042;19.224;2024-01-15T00:22:23;6.30;;;2.50;;
75246;SDS011;63844;50.042;19.224;2024-01-15T00:24:01;5.30;;;2.00;;
75246;SDS011;63844;50.042;19.224;2024-01-15T00:25:38;5.10;;;2.40;;
75246;SDS011;63844;50.042;19.224;2024-01-15T00:27:14;7.20;;;2.80;;
75246;SDS011;63844;50.042;19.224;2024-01-15T00:28:51;5.20;;;2.20;;
75246;SDS011;63844;50.042;19.224;2024-01-15T00:30:27;5.80;;;2.60;;
75246;SDS011;63844;50.042;19.224;2024-01-15T00:32:04;6.40;;;2.40;;
75246;SDS011;63844;50.042;19.224;2024-01-15T00:33:41;6.30;;;2.50;;
75246;SDS011;63844;50.042;19.224;2024-01-15T00:35:17;6.40;;;2.90;;
75246;SDS011;63844;50.042;19.224;2024-01-15T00:36:53;6.50;;;2.30;;
75246;SDS011;63844;50.042;19.224;2024-01-15T00:38:30;8.00;;;2.80;;
75246;SDS011;63844;50.042;19.224;2024-01-15T00:40:07;6.50;;;2.40;;
75246;SDS011;63844;50.042;19.224;2024-01-15T00:41:44;6.50;;;2.40;;
75246;SDS011;63844;50.042;19.224;2024-01-15T00:43:20;4.90;;;2.40;;
75246;SDS011;63844;50.042;19.224;2024-01-15T00:44:57;6.90;;;2.30;;
75246;SDS011;63844;50.042;19.224;2024-01-15T00:46:41;5.40;;;2.30;;
75246;SDS011;63844;50.042;19.224;2024-01-15T00:48:19;5.20;;;2.00;;
75246;SDS011;63844;50.042;19.224;2024-01-15T00:49:55;2.90;;;1.20;;
75246;SDS011;63844;50.042;19.224;2024-01-15T00:51:32;4.30;;;2.10;;
75246;SDS011;63844;50.042;19.224;2024-01-15T00:53:08;6.10;;;2.30;;
75246;SDS011;63844;50.042;19.224;2024-01-15T00:54:45;7.30;;;2.20;;
75246;SDS011;63844;50.042;19.224;2024-01-15T00:56:21;5.80;;;1.70;;
75246;SDS011;63844;50.042;19.224;2024-01-15T00:57:57;4.50;;;1.80;;
75246;SDS011;63844;50.042;19.224;2024-01-15T00:59:34;5.60;;;1.80;;
75246;SDS011;63844;50.042;19.224;2024-01-15T01:01:10;5.00;;;1.60;;
75246;SDS011;63844;50.042;19.224;2024-01-15T01:02:46;4.70;;;2.10;;
75246;SDS011;63844;50.042;19.224;2024-01-15T01:04:23;4.30;;;2.10;;
75246;SDS011;63844;50.042;19.224;2024-01-15T01:06:00;5.30;;;2.10;;
75246;SDS011;63844;50.042;19.224;2024-01-15T01:07:36;3.90;;;1.60;;
75246;SDS011;63844;50.042;19.224;2024-01-15T01:09:13;4.40;;;1.80;;
75246;SDS011;63844;50.042;19.224;2024-01-15T01:10:50;4.70;;;1.90;;
75246;SDS011;63844;50.042;19.224;2024-01-15T01:12:26;5.60;;;1.80;;
75246;SDS011;63844;50.042;19.224;2024-01-15T01:14:02;5.30;;;2.00;;
75246;SDS011;63844;50.042;19.224;2024-01-15T01:15:39;5.20;;;1.90;;
75246;SDS011;63844;50.042;19.224;2024-01-15T01:17:15;3.30;;;1.50;;
75246;SDS011;63844;50.042;19.224;2024-01-15T01:18:52;4.10;;;1.60;;
75246;SDS011;63844;50.042;19.224;2024-01-15T01:20:28;3.60;;;1.60;;
75246;SDS011;63844;50.042;19.224;2024-01-15T01:22:05;3.70;;;1.40;;
75246;SDS011;63844;50.042;19.224;2024-01-15T01:23:41;3.50;;;1.60;;
75246;SDS011;63844;50.042;19.224;2024-01-15T01:25:17;4.50;;;2.10;;
75246;SDS011;63844;50.042;19.224;2024-01-15T01:26:54;5.00;;;1.50;;
75246;SDS011;63844;50.042;19.224;2024-01-15T01:28:30;3.70;;;1.60;;
75246;SDS011;63844;50.042;19.224;2024-01-15T01:30:07;4.00;;;1.60;;
75246;SDS011;63844;50.042;19.224;2024-01-15T01:31:44;3.90;;;1.50;;
75246;SDS011;63844;50.042;19.224;2024-01-15T01:33:21;5.30;;;2.00;;
75246;SDS011;63844;50.042;19.224;2024-01-15T01:34:57;3.70;;;1.20;;
75246;SDS011;63844;50.042;19.224;2024-01-15T01:36:34;4.20;;;1.50;;
75246;SDS011;63844;50.042;19.224;2024-01-15T01:38:10;5.70;;;1.70;;
75246;SDS011;63844;50.042;19.224;2024-01-15T01:39:47;3.60;;;1.50;;
75246;SDS011;63844;50.042;19.224;2024-01-15T01:41:24;3.50;;;1.80;;
75246;SDS011;63844;50.042;19.224;2024-01-15T01:43:02;3.50;;;1.60;;
75246;SDS011;63844;50.042;19.224;2024-01-15T01:44:40;4.30;;;1.60;;
75246;SDS011;63844;50.042;19.224;2024-01-15T01:46:16;4.80;;;1.50;;
75246;SDS011;63844;50.042;19.224;2024-01-15T01:47:54;3.80;;;1.50;;
75246;SDS011;63844;50.042;19.224;2024-01-15T01:49:30;5.50;;;1.40;;
75246;SDS011;63844;50.042;19.224;2024-01-15T01:51:08;5.30;;;1.40;;
75246;SDS011;63844;50.042;19.224;2024-01-15T01:52:44;5.60;;;1.40;;
75246;SDS011;63844;50.042;19.224;2024-01-15T01:54:21;3.40;;;1.50;;
75246;SDS011;63844;50.042;19.224;2024-01-15T01:55:58;3.60;;;1.40;;
75246;SDS011;63844;50.042;19.224;2024-01-15T01:57:34;4.40;;;1.70;;
75246;SDS011;63844;50.042;19.224;2024-01-15T01:59:11;4.10;;;1.60;;
75246;SDS011;63844;50.042;19.224;2024-01-15T02:00:49;4.40;;;1.40;;
75246;SDS011;63844;50.042;19.224;2024-01-15T02:02:25;5.00;;;1.60;;
75246;SDS011;63844;50.042;19.224;2024-01-15T02:04:03;4.80;;;1.70;;
75246;SDS011;63844;50.042;19.224;2024-01-15T02:05:40;4.70;;;1.50;;
75246;SDS011;63844;50.042;19.224;2024-01-15T02:07:19;3.40;;;1.40;;
75246;SDS011;63844;50.042;19.224;2024-01-15T02:08:55;4.60;;;1.40;;
75246;SDS011;63844;50.042;19.224;2024-01-15T02:10:32;5.40;;;1.60;;
75246;SDS011;63844;50.042;19.224;2024-01-15T02:12:08;3.60;;;1.30;;
75246;SDS011;63844;50.042;19.224;2024-01-15T02:13:45;3.50;;;1.50;;
75246;SDS011;63844;50.042;19.224;2024-01-15T02:15:21;3.00;;;1.30;;
75246;SDS011;63844;50.042;19.224;2024-01-15T02:16:58;3.60;;;1.50;;
75246;SDS011;63844;50.042;19.224;2024-01-15T02:18:41;2.70;;;1.40;;
75246;SDS011;63844;50.042;19.224;2024-01-15T02:20:21;3.90;;;2.00;;
75246;SDS011;63844;50.042;19.224;2024-01-15T02:21:57;5.00;;;1.80;;
75246;SDS011;63844;50.042;19.224;2024-01-15T02:23:33;3.80;;;1.30;;
75246;SDS011;63844;50.042;19.224;2024-01-15T02:25:10;4.70;;;1.40;;
75246;SDS011;63844;50.042;19.224;2024-01-15T02:26:46;4.40;;;1.30;;
75246;SDS011;63844;50.042;19.224;2024-01-15T02:28:23;3.90;;;1.50;;
75246;SDS011;63844;50.042;19.224;2024-01-15T02:29:59;3.80;;;1.40;;
75246;SDS011;63844;50.042;19.224;2024-01-15T02:31:36;3.70;;;1.50;;
75246;SDS011;63844;50.042;19.224;2024-01-15T02:33:13;2.00;;;0.90;;
75246;SDS011;63844;50.042;19.224;2024-01-15T02:34:49;3.10;;;1.60;;
75246;SDS011;63844;50.042;19.224;2024-01-15T02:36:26;3.30;;;1.40;;
75246;SDS011;63844;50.042;19.224;2024-01-15T02:38:03;6.10;;;1.40;;
75246;SDS011;63844;50.042;19.224;2024-01-15T02:39:40;3.90;;;1.40;;
75246;SDS011;63844;50.042;19.224;2024-01-15T02:41:16;2.80;;;1.40;;
75246;SDS011;63844;50.042;19.224;2024-01-15T02:42:52;3.90;;;1.50;;
75246;SDS011;63844;50.042;19.224;2024-01-15T02:44:29;5.10;;;1.50;;
75246;SDS011;63844;50.042;19.224;2024-01-15T02:46:05;3.00;;;1.20;;
75246;SDS011;63844;50.042;19.224;2024-01-15T02:47:42;4.40;;;1.50;;
75246;SDS011;63844;50.042;19.224;2024-01-15T02:49:18;3.50;;;1.70;;
75246;SDS011;63844;50.042;19.224;2024-01-15T02:50:55;4.40;;;1.40;;
75246;SDS011;63844;50.042;19.224;2024-01-15T02:52:31;3.90;;;1.80;;
75246;SDS011;63844;50.042;19.224;2024-01-15T02:54:07;4.50;;;1.80;;
75246;SDS011;63844;50.042;19.224;2024-01-15T02:55:44;3.10;;;1.10;;
75246;SDS011;63844;50.042;19.224;2024-01-15T02:57:20;3.10;;;1.70;;
75246;SDS011;63844;50.042;19.224;2024-01-15T02:58:57;3.10;;;1.20;;
75246;SDS011;63844;50.042;19.224;2024-01-15T03:00:33;4.40;;;1.60;;
75246;SDS011;63844;50.042;19.224;2024-01-15T03:02:09;4.00;;;2.00;;
75246;SDS011;63844;50.042;19.224;2024-01-15T03:03:46;3.20;;;1.30;;
75246;SDS011;63844;50.042;19.224;2024-01-15T03:05:22;3.10;;;1.30;;
75246;SDS011;63844;50.042;19.224;2024-01-15T03:06:59;3.30;;;1.30;;
75246;SDS011;63844;50.042;19.224;2024-01-15T03:08:35;3.80;;;1.40;;
75246;SDS011;63844;50.042;19.224;2024-01-15T03:10:11;4.90;;;1.70;;
75246;SDS011;63844;50.042;19.224;2024-01-15T03:11:48;3.40;;;1.60;;
75246;SDS011;63844;50.042;19.224;2024-01-15T03:13:25;3.00;;;1.20;;
75246;SDS011;63844;50.042;19.224;2024-01-15T03:15:01;3.60;;;1.40;;
75246;SDS011;63844;50.042;19.224;2024-01-15T03:16:38;3.90;;;1.40;;
75246;SDS011;63844;50.042;19.224;2024-01-15T03:18:15;2.90;;;1.30;;
75246;SDS011;63844;50.042;19.224;2024-01-15T03:19:51;3.90;;;1.50;;
75246;SDS011;63844;50.042;19.224;2024-01-15T03:21:28;3.90;;;1.30;;
75246;SDS011;63844;50.042;19.224;2024-01-15T03:23:04;4.40;;;1.20;;
75246;SDS011;63844;50.042;19.224;2024-01-15T03:24:41;2.90;;;1.30;;
75246;SDS011;63844;50.042;19.224;2024-01-15T03:26:17;3.60;;;1.30;;
75246;SDS011;63844;50.042;19.224;2024-01-15T03:27:54;2.50;;;1.10;;
75246;SDS011;63844;50.042;19.224;2024-01-15T03:29:30;5.10;;;1.90;;
75246;SDS011;63844;50.042;19.224;2024-01-15T03:31:07;2.90;;;1.30;;
75246;SDS011;63844;50.042;19.224;2024-01-15T03:32:43;3.80;;;1.10;;
75246;SDS011;63844;50.042;19.224;2024-01-15T03:34:20;2.40;;;1.10;;
75246;SDS011;63844;50.042;19.224;2024-01-15T03:35:56;3.30;;;1.20;;
75246;SDS011;63844;50.042;19.224;2024-01-15T03:37:33;3.20;;;1.40;;
75246;SDS011;63844;50.042;19.224;2024-01-15T03:39:09;4.10;;;1.30;;
75246;SDS011;63844;50.042;19.224;2024-01-15T03:40:45;4.40;;;1.50;;
75246;SDS011;63844;50.042;19.224;2024-01-15T03:42:22;4.00;;;1.20;;
75246;SDS011;63844;50.042;19.224;2024-01-15T03:43:59;3.00;;;0.80;;
75246;SDS011;63844;50.042;19.224;2024-01-15T03:45:35;2.90;;;1.10;;
75246;SDS011;63844;50.042;19.224;2024-01-15T03:47:12;3.20;;;1.50;;
75246;SDS011;63844;50.042;19.224;2024-01-15T03:48:48;2.60;;;0.90;;
75246;SDS011;63844;50.042;19.224;2024-01-15T03:50:25;2.50;;;0.90;;
75246;SDS011;63844;50.042;19.224;2024-01-15T03:52:01;2.10;;;1.00;;
75246;SDS011;63844;50.042;19.224;2024-01-15T03:53:38;2.70;;;1.10;;
75246;SDS011;63844;50.042;19.224;2024-01-15T03:55:15;3.10;;;1.00;;
75246;SDS011;63844;50.042;19.224;2024-01-15T03:56:51;1.80;;;0.90;;
75246;SDS011;63844;50.042;19.224;2024-01-15T03:58:27;3.80;;;1.30;;
75246;SDS011;63844;50.042;19.224;2024-01-15T04:00:04;2.80;;;1.10;;
75246;SDS011;63844;50.042;19.224;2024-01-15T04:01:41;2.60;;;0.90;;
75246;SDS011;63844;50.042;19.224;2024-01-15T04:03:25;2.70;;;1.10;;
75246;SDS011;63844;50.042;19.224;2024-01-15T04:05:02;1.90;;;0.80;;
75246;SDS011;63844;50.042;19.224;2024-01-15T04:06:38;2.80;;;0.80;;
75246;SDS011;63844;50.042;19.224;2024-01-15T04:08:15;2.50;;;0.90;;
75246;SDS011;63844;50.042;19.224;2024-01-15T04:09:51;3.50;;;1.00;;
75246;SDS011;63844;50.042;19.224;2024-01-15T04:11:27;1.60;;;0.80;;
75246;SDS011;63844;50.042;19.224;2024-01-15T04:13:04;2.90;;;0.80;;
75246;SDS011;63844;50.042;19.224;2024-01-15T04:14:40;1.80;;;0.60;;
75246;SDS011;63844;50.042;19.224;2024-01-15T04:16:16;1.40;;;0.70;;
75246;SDS011;63844;50.042;19.224;2024-01-15T04:17:53;2.10;;;0.80;;
75246;SDS011;63844;50.042;19.224;2024-01-15T04:19:29;1.50;;;0.70;;
75246;SDS011;63844;50.042;19.224;2024-01-15T04:21:06;1.70;;;0.60;;
75246;SDS011;63844;50.042;19.224;2024-01-15T04:22:43;1.60;;;0.80;;
75246;SDS011;63844;50.042;19.224;2024-01-15T04:24:20;2.20;;;1.00;;
75246;SDS011;63844;50.042;19.224;2024-01-15T04:25:56;2.70;;;0.80;;
75246;SDS011;63844;50.042;19.224;2024-01-15T04:27:33;1.90;;;0.70;;
75246;SDS011;63844;50.042;19.224;2024-01-15T04:29:09;3.00;;;0.90;;
75246;SDS011;63844;50.042;19.224;2024-01-15T04:30:46;1.90;;;0.60;;
75246;SDS011;63844;50.042;19.224;2024-01-15T04:32:22;2.10;;;0.60;;
75246;SDS011;63844;50.042;19.224;2024-01-15T04:33:58;2.60;;;0.80;;
75246;SDS011;63844;50.042;19.224;2024-01-15T04:35:35;0.90;;;0.50;;
75246;SDS011;63844;50.042;19.224;2024-01-15T04:37:11;2.70;;;0.60;;
75246;SDS011;63844;50.042;19.224;2024-01-15T04:38:50;2.20;;;0.70;;
75246;SDS011;63844;50.042;19.224;2024-01-15T04:40:26;3.20;;;1.00;;
75246;SDS011;63844;50.042;19.224;2024-01-15T04:42:03;2.30;;;0.50;;
75246;SDS011;63844;50.042;19.224;2024-01-15T04:43:40;1.80;;;0.60;;
75246;SDS011;63844;50.042;19.224;2024-01-15T04:45:17;3.20;;;0.80;;
75246;SDS011;63844;50.042;19.224;2024-01-15T04:46:54;2.80;;;0.80;;
75246;SDS011;63844;50.042;19.224;2024-01-15T04:48:31;1.70;;;0.70;;
75246;SDS011;63844;50.042;19.224;2024-01-15T04:50:07;2.40;;;0.80;;
75246;SDS011;63844;50.042;19.224;2024-01-15T04:51:44;1.20;;;0.50;;
75246;SDS011;63844;50.042;19.224;2024-01-15T04:53:20;2.00;;;0.60;;
75246;SDS011;63844;50.042;19.224;2024-01-15T04:54:57;2.20;;;0.80;;
75246;SDS011;63844;50.042;19.224;2024-01-15T04:56:33;3.10;;;0.90;;
75246;SDS011;63844;50.042;19.224;2024-01-15T04:58:09;1.50;;;0.60;;
75246;SDS011;63844;50.042;19.224;2024-01-15T04:59:46;1.20;;;0.50;;
75246;SDS011;63844;50.042;19.224;2024-01-15T05:01:22;2.00;;;0.90;;
75246;SDS011;63844;50.042;19.224;2024-01-15T05:02:59;1.70;;;0.90;;
75246;SDS011;63844;50.042;19.224;2024-01-15T05:04:35;1.50;;;0.40;;
75246;SDS011;63844;50.042;19.224;2024-01-15T05:06:11;2.00;;;0.70;;
75246;SDS011;63844;50.042;19.224;2024-01-15T05:07:48;1.60;;;0.40;;
75246;SDS011;63844;50.042;19.224;2024-01-15T05:09:24;1.20;;;0.60;;
75246;SDS011;63844;50.042;19.224;2024-01-15T05:11:01;2.30;;;0.80;;
75246;SDS011;63844;50.042;19.224;2024-01-15T05:12:37;1.20;;;0.70;;
75246;SDS011;63844;50.042;19.224;2024-01-15T05:14:14;2.60;;;0.60;;
75246;SDS011;63844;50.042;19.224;2024-01-15T05:15:50;1.40;;;0.80;;
75246;SDS011;63844;50.042;19.224;2024-01-15T05:17:26;2.00;;;0.80;;
75246;SDS011;63844;50.042;19.224;2024-01-15T05:19:03;3.40;;;0.70;;
75246;SDS011;63844;50.042;19.224;2024-01-15T05:20:39;0.90;;;0.50;;
75246;SDS011;63844;50.042;19.224;2024-01-15T05:22:16;2.20;;;0.60;;
75246;SDS011;63844;50.042;19.224;2024-01-15T05:23:52;1.90;;;0.70;;
75246;SDS011;63844;50.042;19.224;2024-01-15T05:25:28;1.70;;;0.60;;
75246;SDS011;63844;50.042;19.224;2024-01-15T05:27:05;2.00;;;0.80;;
75246;SDS011;63844;50.042;19.224;2024-01-15T05:28:41;2.00;;;0.60;;
75246;SDS011;63844;50.042;19.224;2024-01-15T05:30:21;3.40;;;0.90;;
75246;SDS011;63844;50.042;19.224;2024-01-15T05:31:57;2.30;;;0.80;;
75246;SDS011;63844;50.042;19.224;2024-01-15T05:33:34;1.70;;;0.60;;
75246;SDS011;63844;50.042;19.224;2024-01-15T05:35:10;2.60;;;1.00;;
75246;SDS011;63844;50.042;19.224;2024-01-15T05:36:46;2.10;;;0.50;;
75246;SDS011;63844;50.042;19.224;2024-01-15T05:38:24;2.00;;;0.70;;
75246;SDS011;63844;50.042;19.224;2024-01-15T05:40:00;2.50;;;0.90;;
75246;SDS011;63844;50.042;19.224;2024-01-15T05:41:37;2.60;;;0.90;;
75246;SDS011;63844;50.042;19.224;2024-01-15T05:43:13;2.60;;;0.90;;
75246;SDS011;63844;50.042;19.224;2024-01-15T05:44:50;1.40;;;0.90;;
75246;SDS011;63844;50.042;19.224;2024-01-15T05:46:26;2.30;;;0.90;;
75246;SDS011;63844;50.042;19.224;2024-01-15T05:48:03;3.10;;;1.10;;
75246;SDS011;63844;50.042;19.224;2024-01-15T05:49:40;3.70;;;1.20;;
75246;SDS011;63844;50.042;19.224;2024-01-15T05:51:16;3.20;;;1.10;;
75246;SDS011;63844;50.042;19.224;2024-01-15T05:52:53;3.40;;;1.20;;
75246;SDS011;63844;50.042;19.224;2024-01-15T05:54:29;3.40;;;1.40;;
75246;SDS011;63844;50.042;19.224;2024-01-15T05:56:06;2.90;;;1.30;;
75246;SDS011;63844;50.042;19.224;2024-01-15T05:57:42;3.00;;;1.20;;
75246;SDS011;63844;50.042;19.224;2024-01-15T05:59:19;3.40;;;1.60;;
75246;SDS011;63844;50.042;19.224;2024-01-15T06:00:55;2.70;;;1.10;;
75246;SDS011;63844;50.042;19.224;2024-01-15T06:02:31;2.90;;;1.00;;
75246;SDS011;63844;50.042;19.224;2024-01-15T06:04:08;5.80;;;1.90;;
75246;SDS011;63844;50.042;19.224;2024-01-15T06:05:44;5.00;;;1.50;;
75246;SDS011;63844;50.042;19.224;2024-01-15T06:07:22;3.40;;;1.20;;
75246;SDS011;63844;50.042;19.224;2024-01-15T06:08:59;4.50;;;1.00;;
75246;SDS011;63844;50.042;19.224;2024-01-15T06:10:41;8.10;;;1.90;;
75246;SDS011;63844;50.042;19.224;2024-01-15T06:12:17;3.30;;;1.20;;
75246;SDS011;63844;50.042;19.224;2024-01-15T06:13:54;4.10;;;1.30;;
75246;SDS011;63844;50.042;19.224;2024-01-15T06:15:30;2.40;;;0.90;;
75246;SDS011;63844;50.042;19.224;2024-01-15T06:17:06;3.30;;;1.10;;
75246;SDS011;63844;50.042;19.224;2024-01-15T06:18:43;3.40;;;1.10;;
75246;SDS011;63844;50.042;19.224;2024-01-15T06:20:19;3.30;;;1.20;;
75246;SDS011;63844;50.042;19.224;2024-01-15T06:21:56;2.50;;;1.20;;
75246;SDS011;63844;50.042;19.224;2024-01-15T06:23:32;2.70;;;0.80;;
75246;SDS011;63844;50.042;19.224;2024-01-15T06:25:09;2.80;;;1.10;;
75246;SDS011;63844;50.042;19.224;2024-01-15T06:26:48;3.30;;;1.50;;
75246;SDS011;63844;50.042;19.224;2024-01-15T06:28:24;3.20;;;1.40;;
75246;SDS011;63844;50.042;19.224;2024-01-15T06:30:01;2.80;;;1.20;;
75246;SDS011;63844;50.042;19.224;2024-01-15T06:31:38;3.20;;;1.30;;
75246;SDS011;63844;50.042;19.224;2024-01-15T06:33:14;4.30;;;1.10;;
75246;SDS011;63844;50.042;19.224;2024-01-15T06:34:51;3.10;;;1.30;;
75246;SDS011;63844;50.042;19.224;2024-01-15T06:36:27;2.50;;;1.10;;
75246;SDS011;63844;50.042;19.224;2024-01-15T06:38:03;3.20;;;1.40;;
75246;SDS011;63844;50.042;19.224;2024-01-15T06:39:40;2.60;;;1.20;;
75246;SDS011;63844;50.042;19.224;2024-01-15T06:41:16;3.20;;;1.30;;
75246;SDS011;63844;50.042;19.224;2024-01-15T06:42:52;3.20;;;1.30;;
75246;SDS011;63844;50.042;19.224;2024-01-15T06:44:29;3.40;;;0.90;;
75246;SDS011;63844;50.042;19.224;2024-01-15T06:46:05;2.60;;;0.70;;
75246;SDS011;63844;50.042;19.224;2024-01-15T06:47:42;3.40;;;1.40;;
75246;SDS011;63844;50.042;19.224;2024-01-15T06:49:18;5.20;;;1.90;;
75246;SDS011;63844;50.042;19.224;2024-01-15T06:50:55;9.80;;;3.00;;
75246;SDS011;63844;50.042;19.224;2024-01-15T06:52:31;7.10;;;2.70;;
75246;SDS011;63844;50.042;19.224;2024-01-15T06:54:07;10.00;;;2.60;;
75246;SDS011;63844;50.042;19.224;2024-01-15T06:55:44;2.90;;;1.40;;
75246;SDS011;63844;50.042;19.224;2024-01-15T06:57:21;1.80;;;0.80;;
75246;SDS011;63844;50.042;19.224;2024-01-15T06:58:57;3.50;;;1.20;;
75246;SDS011;63844;50.042;19.224;2024-01-15T07:00:34;2.70;;;1.10;;
75246;SDS011;63844;50.042;19.224;2024-01-15T07:02:10;2.20;;;1.10;;
75246;SDS011;63844;50.042;19.224;2024-01-15T07:03:47;5.70;;;1.70;;
75246;SDS011;63844;50.042;19.224;2024-01-15T07:05:23;3.10;;;1.60;;
75246;SDS011;63844;50.042;19.224;2024-01-15T07:07:00;2.70;;;1.10;;
75246;SDS011;63844;50.042;19.224;2024-01-15T07:08:37;2.50;;;1.10;;
75246;SDS011;63844;50.042;19.224;2024-01-15T07:10:13;3.10;;;1.50;;
75246;SDS011;63844;50.042;19.224;2024-01-15T07:11:50;3.50;;;1.10;;
75246;SDS011;63844;50.042;19.224;2024-01-15T07:13:27;2.60;;;0.90;;
75246;SDS011;63844;50.042;19.224;2024-01-15T07:15:05;3.20;;;1.10;;
75246;SDS011;63844;50.042;19.224;2024-01-15T07:16:44;2.50;;;0.80;;
75246;SDS011;63844;50.042;19.224;2024-01-15T07:18:20;4.40;;;1.60;;
75246;SDS011;63844;50.042;19.224;2024-01-15T07:19:57;3.90;;;1.30;;
75246;SDS011;63844;50.042;19.224;2024-01-15T07:21:33;3.10;;;1.20;;
75246;SDS011;63844;50.042;19.224;2024-01-15T07:23:09;5.50;;;1.80;;
75246;SDS011;63844;50.042;19.224;2024-01-15T07:24:46;3.60;;;1.40;;
75246;SDS011;63844;50.042;19.224;2024-01-15T07:26:23;4.40;;;1.80;;
75246;SDS011;63844;50.042;19.224;2024-01-15T07:27:59;4.60;;;1.60;;
75246;SDS011;63844;50.042;19.224;2024-01-15T07:29:36;3.50;;;1.50;;
75246;SDS011;63844;50.042;19.224;2024-01-15T07:31:15;4.10;;;1.70;;
75246;SDS011;63844;50.042;19.224;2024-01-15T07:32:52;3.80;;;1.60;;
75246;SDS011;63844;50.042;19.224;2024-01-15T07:34:29;5.10;;;1.90;;
75246;SDS011;63844;50.042;19.224;2024-01-15T07:36:06;3.60;;;2.00;;
75246;SDS011;63844;50.042;19.224;2024-01-15T07:37:42;4.50;;;1.90;;
75246;SDS011;63844;50.042;19.224;2024-01-15T07:39:19;4.30;;;1.40;;
75246;SDS011;63844;50.042;19.224;2024-01-15T07:40:55;5.40;;;2.30;;
75246;SDS011;63844;50.042;19.224;2024-01-15T07:42:32;4.50;;;1.70;;
75246;SDS011;63844;50.042;19.224;2024-01-15T07:44:08;4.60;;;1.80;;
75246;SDS011;63844;50.042;19.224;2024-01-15T07:45:45;3.70;;;1.80;;
75246;SDS011;63844;50.042;19.224;2024-01-15T07:47:21;4.80;;;1.70;;
75246;SDS011;63844;50.042;19.224;2024-01-15T07:48:58;5.50;;;1.70;;
75246;SDS011;63844;50.042;19.224;2024-01-15T07:50:34;4.70;;;2.00;;
75246;SDS011;63844;50.042;19.224;2024-01-15T07:52:11;5.30;;;1.80;;
75246;SDS011;63844;50.042;19.224;2024-01-15T07:53:49;3.60;;;1.90;;
75246;SDS011;63844;50.042;19.224;2024-01-15T07:55:26;4.60;;;1.70;;
75246;SDS011;63844;50.042;19.224;2024-01-15T07:57:03;5.00;;;1.90;;
75246;SDS011;63844;50.042;19.224;2024-01-15T07:58:39;4.80;;;1.30;;
75246;SDS011;63844;50.042;19.224;2024-01-15T08:00:16;5.90;;;2.30;;
75246;SDS011;63844;50.042;19.224;2024-01-15T08:01:53;6.30;;;2.50;;
75246;SDS011;63844;50.042;19.224;2024-01-15T08:03:29;4.60;;;1.80;;
75246;SDS011;63844;50.042;19.224;2024-01-15T08:05:06;7.00;;;2.50;;
75246;SDS011;63844;50.042;19.224;2024-01-15T08:06:43;5.40;;;2.40;;
75246;SDS011;63844;50.042;19.224;2024-01-15T08:08:19;7.20;;;3.00;;
75246;SDS011;63844;50.042;19.224;2024-01-15T08:09:57;5.60;;;1.80;;
75246;SDS011;63844;50.042;19.224;2024-01-15T08:11:34;6.80;;;3.10;;
75246;SDS011;63844;50.042;19.224;2024-01-15T08:13:11;5.00;;;1.90;;
75246;SDS011;63844;50.042;19.224;2024-01-15T08:14:48;5.60;;;2.00;;
75246;SDS011;63844;50.042;19.224;2024-01-15T08:16:24;5.30;;;2.20;;
75246;SDS011;63844;50.042;19.224;2024-01-15T08:18:01;5.60;;;2.30;;
75246;SDS011;63844;50.042;19.224;2024-01-15T08:19:39;6.60;;;2.60;;
75246;SDS011;63844;50.042;19.224;2024-01-15T08:21:17;6.20;;;2.70;;
75246;SDS011;63844;50.042;19.224;2024-01-15T08:22:53;5.80;;;2.20;;
75246;SDS011;63844;50.042;19.224;2024-01-15T08:24:30;6.70;;;2.90;;
75246;SDS011;63844;50.042;19.224;2024-01-15T08:26:07;7.00;;;2.20;;
75246;SDS011;63844;50.042;19.224;2024-01-15T08:27:45;5.60;;;2.50;;
75246;SDS011;63844;50.042;19.224;2024-01-15T08:29:21;7.50;;;2.70;;
75246;SDS011;63844;50.042;19.224;2024-01-15T08:30:58;6.50;;;2.50;;
75246;SDS011;63844;50.042;19.224;2024-01-15T08:32:34;5.80;;;2.90;;
75246;SDS011;63844;50.042;19.224;2024-01-15T08:34:16;7.70;;;2.80;;
75246;SDS011;63844;50.042;19.224;2024-01-15T08:35:53;6.80;;;2.50;;
75246;SDS011;63844;50.042;19.224;2024-01-15T08:37:30;9.00;;;3.80;;
75246;SDS011;63844;50.042;19.224;2024-01-15T08:39:06;5.70;;;2.20;;
75246;SDS011;63844;50.042;19.224;2024-01-15T08:40:45;7.40;;;3.10;;
75246;SDS011;63844;50.042;19.224;2024-01-15T08:42:21;6.30;;;2.10;;
75246;SDS011;63844;50.042;19.224;2024-01-15T08:43:58;8.50;;;3.10;;
75246;SDS011;63844;50.042;19.224;2024-01-15T08:45:34;6.50;;;2.90;;
75246;SDS011;63844;50.042;19.224;2024-01-15T08:47:10;5.60;;;2.30;;
75246;SDS011;63844;50.042;19.224;2024-01-15T08:48:47;7.20;;;2.90;;
75246;SDS011;63844;50.042;19.224;2024-01-15T08:50:23;8.30;;;3.00;;
75246;SDS011;63844;50.042;19.224;2024-01-15T08:52:00;7.30;;;2.80;;
75246;SDS011;63844;50.042;19.224;2024-01-15T08:53:36;5.20;;;2.80;;
75246;SDS011;63844;50.042;19.224;2024-01-15T08:55:13;5.70;;;2.30;;
75246;SDS011;63844;50.042;19.224;2024-01-15T08:56:50;8.60;;;3.00;;
75246;SDS011;63844;50.042;19.224;2024-01-15T08:58:26;6.00;;;3.10;;
75246;SDS011;63844;50.042;19.224;2024-01-15T09:00:03;6.70;;;2.70;;
75246;SDS011;63844;50.042;19.224;2024-01-15T09:01:44;6.80;;;2.60;;
75246;SDS011;63844;50.042;19.224;2024-01-15T09:03:21;8.10;;;2.70;;
75246;SDS011;63844;50.042;19.224;2024-01-15T09:04:57;7.90;;;3.00;;
75246;SDS011;63844;50.042;19.224;2024-01-15T09:06:34;8.20;;;3.30;;
75246;SDS011;63844;50.042;19.224;2024-01-15T09:08:10;19.80;;;6.90;;
75246;SDS011;63844;50.042;19.224;2024-01-15T09:09:47;17.60;;;7.40;;
75246;SDS011;63844;50.042;19.224;2024-01-15T09:11:23;8.00;;;3.40;;
75246;SDS011;63844;50.042;19.224;2024-01-15T09:13:00;13.10;;;5.00;;
75246;SDS011;63844;50.042;19.224;2024-01-15T09:14:37;8.30;;;3.50;;
75246;SDS011;63844;50.042;19.224;2024-01-15T09:16:13;7.90;;;3.30;;
75246;SDS011;63844;50.042;19.224;2024-01-15T09:17:50;11.90;;;4.40;;
75246;SDS011;63844;50.042;19.224;2024-01-15T09:19:26;9.20;;;4.20;;
75246;SDS011;63844;50.042;19.224;2024-01-15T09:21:03;9.90;;;4.20;;
75246;SDS011;63844;50.042;19.224;2024-01-15T09:22:40;10.40;;;4.50;;
75246;SDS011;63844;50.042;19.224;2024-01-15T09:24:18;11.80;;;4.90;;
75246;SDS011;63844;50.042;19.224;2024-01-15T09:25:54;9.90;;;4.00;;
75246;SDS011;63844;50.042;19.224;2024-01-15T09:27:31;10.60;;;3.60;;
75246;SDS011;63844;50.042;19.224;2024-01-15T09:29:08;10.10;;;3.60;;
75246;SDS011;63844;50.042;19.224;2024-01-15T09:30:46;10.10;;;3.70;;
75246;SDS011;63844;50.042;19.224;2024-01-15T09:32:23;10.80;;;4.00;;
75246;SDS011;63844;50.042;19.224;2024-01-15T09:34:00;7.30;;;3.40;;